createdAt,value
2018-05-12T00:00:08.005Z,14.86
2018-05-12T00:02:35.548Z,14.78
2018-05-12T00:05:03.077Z,14.80
2018-05-12T00:07:30.718Z,14.74
2018-05-12T00:09:58.245Z,14.72
2018-05-12T00:12:25.760Z,14.76
2018-05-12T00:14:53.634Z,14.67
2018-05-12T00:17:21.084Z,14.66
2018-05-12T00:19:48.604Z,14.56
2018-05-12T00:22:16.351Z,14.46
2018-05-12T00:24:43.880Z,14.48
2018-05-12T00:27:11.408Z,14.41
2018-05-12T00:29:39.108Z,14.31
2018-05-12T00:32:06.633Z,14.28
2018-05-12T00:34:34.331Z,14.40
2018-05-12T00:37:02.340Z,14.42
2018-05-12T00:39:30.394Z,14.39
2018-05-12T00:41:57.912Z,14.25
2018-05-12T00:44:25.482Z,14.12
2018-05-12T00:46:53.012Z,14.17
2018-05-12T00:49:20.545Z,14.03
2018-05-12T00:51:48.312Z,13.97
2018-05-12T00:54:15.844Z,14.09
2018-05-12T00:56:43.410Z,14.05
2018-05-12T00:59:11.124Z,14.05
2018-05-12T01:01:38.659Z,14.02
2018-05-12T01:04:06.181Z,14.10
2018-05-12T01:06:33.748Z,14.14
2018-05-12T01:09:01.272Z,14.13
2018-05-12T01:11:28.805Z,14.13
2018-05-12T01:13:56.777Z,13.96
2018-05-12T01:16:24.308Z,13.94
2018-05-12T01:18:51.852Z,13.95
2018-05-12T01:21:19.428Z,13.77
2018-05-12T01:23:47.115Z,13.84
2018-05-12T01:26:14.640Z,13.69
2018-05-12T01:28:42.943Z,13.73
2018-05-12T01:31:10.784Z,13.75
2018-05-12T01:33:38.312Z,13.77
2018-05-12T01:36:06.276Z,13.68
2018-05-12T01:38:33.801Z,13.73
2018-05-12T01:41:01.328Z,13.73
2018-05-12T01:43:29.160Z,13.73
2018-05-12T01:45:56.684Z,13.78
2018-05-12T01:48:24.217Z,13.67
2018-05-12T01:50:51.861Z,13.51
2018-05-12T01:53:19.384Z,13.53
2018-05-12T01:55:46.942Z,13.51
2018-05-12T01:58:14.500Z,13.58
2018-05-12T02:00:42.020Z,13.55
2018-05-12T02:03:09.559Z,13.56
2018-05-12T02:05:37.528Z,13.57
2018-05-12T02:08:05.056Z,13.41
2018-05-12T02:10:32.584Z,13.50
2018-05-12T02:13:00.280Z,13.50
2018-05-12T02:15:27.800Z,13.35
2018-05-12T02:17:55.329Z,13.43
2018-05-12T02:20:22.892Z,13.49
2018-05-12T02:22:50.416Z,13.51
2018-05-12T02:25:17.945Z,13.51
2018-05-12T02:27:45.641Z,13.53
2018-05-12T02:30:13.165Z,13.52
2018-05-12T02:32:40.689Z,13.51
2018-05-12T02:35:08.731Z,13.53
2018-05-12T02:37:36.276Z,13.52
2018-05-12T02:40:03.806Z,13.49
2018-05-12T02:42:31.517Z,13.44
2018-05-12T02:44:59.041Z,13.38
2018-05-12T02:47:26.567Z,13.30
2018-05-12T02:49:54.130Z,13.21
2018-05-12T02:52:21.717Z,13.12
2018-05-12T02:54:49.250Z,13.08
2018-05-12T02:57:16.814Z,12.99
2018-05-12T02:59:44.343Z,13.05
2018-05-12T03:02:11.905Z,12.92
2018-05-12T03:04:39.852Z,12.98
2018-05-12T03:07:07.381Z,12.66
2018-05-12T03:09:34.907Z,12.80
2018-05-12T03:12:02.536Z,12.56
2018-05-12T03:14:30.056Z,12.77
2018-05-12T03:16:57.584Z,13.09
2018-05-12T03:19:25.308Z,13.09
2018-05-12T03:21:52.907Z,13.10
2018-05-12T03:24:20.520Z,12.89
2018-05-12T03:26:48.296Z,13.06
2018-05-12T03:29:15.815Z,13.05
2018-05-12T03:31:43.335Z,12.96
2018-05-12T03:34:10.880Z,12.82
2018-05-12T03:36:38.401Z,12.68
2018-05-12T03:39:05.920Z,12.71
2018-05-12T03:41:33.758Z,12.84
2018-05-12T03:44:01.285Z,12.75
2018-05-12T03:46:29.840Z,12.62
2018-05-12T03:48:58.257Z,12.54
2018-05-12T03:51:26.929Z,12.61
2018-05-12T03:53:54.752Z,12.67
2018-05-12T03:56:22.483Z,12.62
2018-05-12T03:58:49.996Z,12.56
2018-05-12T04:01:17.508Z,12.53
2018-05-12T04:03:45.524Z,12.35
2018-05-12T04:06:24.860Z,12.60
2018-05-12T04:09:04.268Z,12.80
2018-05-12T04:11:43.662Z,12.80
2018-05-12T04:14:11.451Z,12.74
2018-05-12T04:16:38.976Z,12.80
2018-05-12T04:19:06.500Z,12.77
2018-05-12T04:21:34.440Z,12.99
2018-05-12T04:24:01.970Z,13.23
2018-05-12T04:26:29.492Z,13.62
2018-05-12T04:28:57.217Z,13.64
2018-05-12T04:31:24.740Z,13.03
2018-05-12T04:33:52.260Z,13.07
2018-05-12T04:36:19.992Z,12.73
2018-05-12T04:38:47.529Z,12.86
2018-05-12T04:41:15.059Z,12.96
2018-05-12T04:43:43.080Z,13.44
2018-05-12T04:46:10.625Z,13.90
2018-05-12T04:48:38.148Z,13.92
2018-05-12T04:51:05.864Z,14.14
2018-05-12T04:53:33.389Z,14.05
2018-05-12T04:56:00.951Z,13.85
2018-05-12T04:58:28.748Z,14.09
2018-05-12T05:00:56.368Z,13.82
2018-05-12T05:03:23.896Z,14.12
2018-05-12T05:05:52.217Z,14.34
2018-05-12T05:08:19.834Z,14.43
2018-05-12T05:10:47.290Z,14.13
2018-05-12T05:13:14.865Z,14.10
2018-05-12T05:15:42.392Z,14.16
2018-05-12T05:18:09.923Z,14.62
2018-05-12T05:20:37.484Z,14.82
2018-05-12T05:23:05.004Z,14.95
2018-05-12T05:25:32.525Z,15.00
2018-05-12T05:28:00.060Z,15.10
2018-05-12T05:30:27.576Z,14.87
2018-05-12T05:32:55.523Z,14.87
2018-05-12T05:35:23.159Z,14.80
2018-05-12T05:37:50.676Z,14.82
2018-05-12T05:40:18.390Z,14.99
2018-05-12T05:42:46.140Z,15.30
2018-05-12T05:45:13.664Z,15.70
2018-05-12T05:47:41.200Z,15.78
2018-05-12T05:50:09.131Z,16.02
2018-05-12T05:52:36.676Z,16.01
2018-05-12T05:55:04.193Z,15.99
2018-05-12T05:57:31.916Z,16.32
2018-05-12T05:59:59.433Z,16.64
2018-05-12T06:02:26.948Z,16.82
2018-05-12T06:04:54.792Z,16.96
2018-05-12T06:07:22.308Z,17.29
2018-05-12T06:09:49.819Z,17.13
2018-05-12T06:12:17.396Z,17.43
2018-05-12T06:14:44.912Z,17.56
2018-05-12T06:17:12.428Z,17.46
2018-05-12T06:19:40.352Z,17.89
2018-05-12T06:22:07.881Z,17.97
2018-05-12T06:24:35.401Z,18.06
2018-05-12T06:27:02.977Z,18.44
2018-05-12T06:29:30.617Z,18.89
2018-05-12T06:31:58.136Z,19.14
2018-05-12T06:34:25.919Z,19.26
2018-05-12T06:36:53.437Z,19.52
2018-05-12T06:39:20.956Z,20.07
2018-05-12T06:41:48.533Z,20.52
2018-05-12T06:44:16.051Z,20.57
2018-05-12T06:46:43.626Z,20.61
2018-05-12T06:49:11.150Z,21.19
2018-05-12T06:51:38.674Z,21.31
2018-05-12T06:54:07.221Z,21.79
2018-05-12T06:56:37.456Z,21.90
2018-05-12T06:59:05.700Z,22.83
2018-05-12T07:01:34.177Z,23.73
2018-05-12T07:04:02.796Z,23.70
2018-05-12T07:06:31.648Z,23.95
2018-05-12T07:08:59.451Z,24.54
2018-05-12T07:11:27.096Z,24.71
2018-05-12T07:13:55.419Z,24.73
2018-05-12T07:16:25.028Z,25.04
2018-05-12T07:18:53.276Z,24.63
2018-05-12T07:21:21.631Z,25.00
2018-05-12T07:23:49.673Z,25.17
2018-05-12T07:26:18.199Z,25.24
2018-05-12T07:28:46.130Z,24.89
2018-05-12T07:31:13.692Z,25.83
2018-05-12T07:33:41.365Z,26.52
2018-05-12T07:36:09.978Z,26.79
2018-05-12T07:38:37.621Z,26.86
2018-05-12T07:41:05.761Z,27.43
2018-05-12T07:43:34.498Z,27.72
2018-05-12T07:46:03.696Z,28.23
2018-05-12T07:48:32.676Z,28.69
2018-05-12T07:51:02.227Z,28.57
2018-05-12T07:53:29.799Z,28.22
2018-05-12T07:55:57.518Z,27.81
2018-05-12T07:58:27.637Z,28.42
2018-05-12T08:00:56.125Z,28.99
2018-05-12T08:03:25.569Z,28.66
2018-05-12T08:05:54.309Z,28.50
2018-05-12T08:08:22.280Z,28.76
2018-05-12T08:10:50.285Z,29.06
2018-05-12T08:13:18.858Z,29.52
2018-05-12T08:15:46.805Z,29.75
2018-05-12T08:18:16.893Z,29.44
2018-05-12T08:20:44.888Z,29.58
2018-05-12T08:23:12.449Z,29.89
2018-05-12T08:25:40.189Z,29.76
2018-05-12T08:28:08.677Z,29.73
2018-05-12T08:30:36.792Z,30.03
2018-05-12T08:33:04.944Z,30.52
2018-05-12T08:35:33.467Z,30.26
2018-05-12T08:38:01.910Z,30.27
2018-05-12T08:40:30.503Z,30.46
2018-05-12T08:42:58.050Z,30.39
2018-05-12T08:45:26.716Z,30.41
2018-05-12T08:47:56.239Z,30.88
2018-05-12T08:50:24.344Z,30.42
2018-05-12T08:52:52.410Z,31.32
2018-05-12T08:55:21.945Z,31.68
2018-05-12T08:57:50.770Z,32.42
2018-05-12T09:00:18.536Z,32.78
2018-05-12T09:02:47.014Z,32.55
2018-05-12T09:05:14.987Z,32.40
2018-05-12T09:07:43.837Z,33.41
2018-05-12T09:10:12.562Z,33.09
2018-05-12T09:12:40.428Z,33.44
2018-05-12T09:15:08.501Z,34.57
2018-05-12T09:17:36.442Z,34.65
2018-05-12T09:20:04.665Z,35.16
2018-05-12T09:22:32.588Z,36.08
2018-05-12T09:25:00.775Z,35.64
2018-05-12T09:27:28.549Z,36.29
2018-05-12T09:29:56.132Z,36.00
2018-05-12T09:32:24.236Z,35.39
2018-05-12T09:34:52.357Z,36.00
2018-05-12T09:37:19.912Z,36.59
2018-05-12T09:39:47.797Z,36.90
2018-05-12T09:42:15.394Z,37.17
2018-05-12T09:44:42.862Z,37.25
2018-05-12T09:47:11.073Z,35.66
2018-05-12T09:49:38.592Z,35.19
2018-05-12T09:52:06.110Z,36.74
2018-05-12T09:54:33.916Z,37.00
2018-05-12T09:57:01.429Z,37.29
2018-05-12T09:59:29.101Z,38.31
2018-05-12T10:01:56.758Z,38.12
2018-05-12T10:04:24.398Z,38.66
2018-05-12T10:06:51.964Z,37.96
2018-05-12T10:09:19.784Z,38.65
2018-05-12T10:11:47.321Z,38.58
2018-05-12T10:14:14.839Z,39.27
2018-05-12T10:16:42.419Z,39.50
2018-05-12T10:19:09.980Z,39.00
2018-05-12T10:21:37.501Z,39.05
2018-05-12T10:24:05.994Z,38.89
2018-05-12T10:26:33.884Z,37.75
2018-05-12T10:29:01.820Z,38.43
2018-05-12T10:31:31.491Z,39.32
2018-05-12T10:33:59.101Z,38.76
2018-05-12T10:36:26.672Z,38.69
2018-05-12T10:38:54.241Z,35.35
2018-05-12T10:41:21.768Z,35.79
2018-05-12T10:43:49.305Z,36.69
2018-05-12T10:46:16.861Z,37.15
2018-05-12T10:48:44.380Z,36.50
2018-05-12T10:51:11.896Z,35.07
2018-05-12T10:53:39.452Z,35.58
2018-05-12T10:56:06.984Z,35.66
2018-05-12T10:58:34.503Z,37.27
2018-05-12T11:01:02.235Z,37.71
2018-05-12T11:03:29.749Z,38.93
2018-05-12T11:05:57.268Z,38.69
2018-05-12T11:08:25.013Z,37.46
2018-05-12T11:10:52.525Z,36.21
2018-05-12T11:13:20.050Z,35.71
2018-05-12T11:15:47.617Z,37.32
2018-05-12T11:18:15.122Z,38.38
2018-05-12T11:20:42.661Z,37.79
2018-05-12T11:23:10.369Z,38.59
2018-05-12T11:25:37.890Z,37.77
2018-05-12T11:28:05.413Z,34.81
2018-05-12T11:30:33.203Z,32.63
2018-05-12T11:33:00.733Z,30.39
2018-05-12T11:35:28.257Z,29.67
2018-05-12T11:37:55.929Z,30.84
2018-05-12T11:40:23.457Z,31.35
2018-05-12T11:42:50.984Z,30.65
2018-05-12T11:45:18.918Z,30.40
2018-05-12T11:47:46.441Z,31.45
2018-05-12T11:50:14.184Z,32.70
2018-05-12T11:52:42.659Z,31.39
2018-05-12T11:55:10.176Z,31.64
2018-05-12T11:57:37.692Z,34.34
2018-05-12T12:00:05.344Z,38.45
2018-05-12T12:02:32.910Z,38.91
2018-05-12T12:05:00.388Z,38.62
2018-05-12T12:07:28.176Z,37.53
2018-05-12T12:09:55.711Z,39.33
2018-05-12T12:12:23.236Z,39.26
2018-05-12T12:14:50.880Z,39.28
2018-05-12T12:17:18.397Z,40.30
2018-05-12T12:19:45.917Z,41.12
2018-05-12T12:22:13.844Z,40.49
2018-05-12T12:24:41.364Z,41.02
2018-05-12T12:27:08.874Z,39.25
2018-05-12T12:29:36.528Z,36.03
2018-05-12T12:32:04.044Z,33.30
2018-05-12T12:34:31.560Z,32.51
2018-05-12T12:36:59.300Z,34.85
2018-05-12T12:39:26.860Z,36.22
2018-05-12T12:41:54.373Z,37.98
2018-05-12T12:44:22.089Z,37.66
2018-05-12T12:46:49.611Z,37.76
2018-05-12T12:49:17.157Z,37.94
2018-05-12T12:51:44.802Z,35.84
2018-05-12T12:54:12.241Z,34.06
2018-05-12T12:56:39.879Z,35.45
2018-05-12T12:59:07.909Z,38.66
2018-05-12T13:01:35.534Z,40.34
2018-05-12T13:04:03.089Z,42.06
2018-05-12T13:06:30.827Z,40.24
2018-05-12T13:08:58.357Z,36.68
2018-05-12T13:11:25.891Z,35.15
2018-05-12T13:13:53.492Z,34.05
2018-05-12T13:16:21.008Z,32.93
2018-05-12T13:18:48.526Z,32.93
2018-05-12T13:21:16.185Z,32.42
2018-05-12T13:23:43.708Z,33.86
2018-05-12T13:26:11.220Z,35.62
2018-05-12T13:28:38.941Z,37.07
2018-05-12T13:31:06.457Z,38.60
2018-05-12T13:33:33.974Z,39.39
2018-05-12T13:36:01.540Z,39.24
2018-05-12T13:38:29.129Z,39.18
2018-05-12T13:40:56.661Z,38.42
2018-05-12T13:43:24.220Z,38.58
2018-05-12T13:45:51.887Z,37.61
2018-05-12T13:48:19.400Z,36.04
2018-05-12T13:50:47.068Z,35.62
2018-05-12T13:53:14.605Z,33.14
2018-05-12T13:55:42.138Z,34.65
2018-05-12T13:58:09.739Z,34.83
2018-05-12T14:00:37.253Z,35.99
2018-05-12T14:03:04.765Z,37.06
2018-05-12T14:05:32.305Z,37.23
2018-05-12T14:07:59.853Z,36.40
2018-05-12T14:10:27.365Z,36.75
2018-05-12T14:12:55.066Z,35.86
2018-05-12T14:15:22.622Z,34.77
2018-05-12T14:17:50.157Z,34.01
2018-05-12T14:20:17.921Z,32.32
2018-05-12T14:22:45.457Z,31.54
2018-05-12T14:25:12.966Z,31.32
2018-05-12T14:27:40.653Z,31.21
2018-05-12T14:30:08.465Z,31.05
2018-05-12T14:32:37.700Z,30.99
2018-05-12T14:35:05.845Z,30.87
2018-05-12T14:37:34.056Z,31.01
2018-05-12T14:40:02.814Z,30.66
2018-05-12T14:42:30.670Z,30.18
2018-05-12T14:44:58.609Z,30.27
2018-05-12T14:47:26.130Z,30.20
2018-05-12T14:49:53.676Z,29.92
2018-05-12T14:52:21.188Z,29.66
2018-05-12T14:54:48.709Z,29.45
2018-05-12T14:57:16.866Z,29.88
2018-05-12T14:59:44.396Z,31.00
2018-05-12T15:02:12.185Z,31.89
2018-05-12T15:04:39.939Z,32.95
2018-05-12T15:07:09.548Z,33.55
2018-05-12T15:09:37.076Z,34.28
2018-05-12T15:12:04.884Z,34.22
2018-05-12T15:14:32.435Z,34.41
2018-05-12T15:17:00.188Z,34.92
2018-05-12T15:19:27.846Z,34.96
2018-05-12T15:21:55.360Z,34.66
2018-05-12T15:24:22.893Z,35.14
2018-05-12T15:26:50.701Z,34.62
2018-05-12T15:29:18.235Z,34.11
2018-05-12T15:31:46.589Z,33.48
2018-05-12T15:34:14.326Z,32.70
2018-05-12T15:36:41.833Z,31.90
2018-05-12T15:39:09.572Z,31.67
2018-05-12T15:41:37.655Z,31.10
2018-05-12T15:44:05.223Z,31.13
2018-05-12T15:46:32.716Z,30.65
2018-05-12T15:49:01.857Z,30.76
2018-05-12T15:51:29.834Z,30.56
2018-05-12T15:53:57.599Z,30.49
2018-05-12T15:56:25.277Z,30.38
2018-05-12T15:58:53.592Z,30.13
2018-05-12T16:01:21.106Z,30.27
2018-05-12T16:03:48.740Z,30.11
2018-05-12T16:06:17.089Z,30.07
2018-05-12T16:08:45.858Z,29.85
2018-05-12T16:11:13.478Z,29.92
2018-05-12T16:13:41.550Z,29.78
2018-05-12T16:16:09.067Z,29.83
2018-05-12T16:18:36.734Z,29.63
2018-05-12T16:21:04.255Z,30.15
2018-05-12T16:23:32.503Z,30.18
2018-05-12T16:26:00.201Z,30.14
2018-05-12T16:28:28.830Z,29.94
2018-05-12T16:30:56.428Z,29.77
2018-05-12T16:33:25.108Z,29.47
2018-05-12T16:35:52.616Z,29.28
2018-05-12T16:38:20.129Z,29.50
2018-05-12T16:40:47.958Z,29.50
2018-05-12T16:43:15.472Z,29.30
2018-05-12T16:45:42.996Z,29.10
2018-05-12T16:48:10.940Z,29.29
2018-05-12T16:50:38.560Z,29.56
2018-05-12T16:53:06.396Z,29.36
2018-05-12T16:55:34.128Z,29.55
2018-05-12T16:58:01.763Z,29.55
2018-05-12T17:00:29.283Z,29.05
2018-05-12T17:02:57.069Z,29.02
2018-05-12T17:05:24.673Z,29.08
2018-05-12T17:07:52.208Z,28.99
2018-05-12T17:10:19.901Z,28.67
2018-05-12T17:12:47.583Z,28.67
2018-05-12T17:15:15.137Z,28.95
2018-05-12T17:17:43.090Z,28.91
2018-05-12T17:20:10.617Z,28.75
2018-05-12T17:22:38.125Z,28.56
2018-05-12T17:25:06.094Z,28.68
2018-05-12T17:27:34.064Z,28.48
2018-05-12T17:30:01.575Z,28.51
2018-05-12T17:32:29.152Z,28.48
2018-05-12T17:34:56.656Z,28.42
2018-05-12T17:37:24.179Z,28.36
2018-05-12T17:39:52.017Z,28.33
2018-05-12T17:42:19.536Z,27.83
2018-05-12T17:44:47.167Z,27.90
2018-05-12T17:47:15.076Z,27.91
2018-05-12T17:49:43.335Z,27.83
2018-05-12T17:52:11.498Z,27.59
2018-05-12T17:54:39.101Z,27.58
2018-05-12T17:57:06.787Z,27.63
2018-05-12T17:59:36.494Z,27.62
2018-05-12T18:02:05.296Z,27.49
2018-05-12T18:04:32.975Z,27.33
2018-05-12T18:07:01.144Z,27.11
2018-05-12T18:09:29.027Z,27.11
2018-05-12T18:11:57.778Z,26.99
2018-05-12T18:14:25.791Z,26.93
2018-05-12T18:16:53.396Z,26.75
2018-05-12T18:19:21.117Z,26.71
2018-05-12T18:21:48.633Z,26.63
2018-05-12T18:24:16.530Z,26.50
2018-05-12T18:26:44.112Z,26.41
2018-05-12T18:29:12.264Z,26.29
2018-05-12T18:31:39.881Z,26.16
2018-05-12T18:34:07.449Z,26.02
2018-05-12T18:36:34.976Z,25.88
2018-05-12T18:39:03.097Z,25.78
2018-05-12T18:41:30.880Z,25.65
2018-05-12T18:43:58.539Z,25.52
2018-05-12T18:46:26.411Z,25.39
2018-05-12T18:48:53.959Z,25.23
2018-05-12T18:51:21.822Z,25.11
2018-05-12T18:53:49.906Z,24.98
2018-05-12T18:56:17.542Z,24.86
2018-05-12T18:58:45.061Z,24.73
2018-05-12T19:01:13.088Z,24.65
2018-05-12T19:03:40.759Z,24.52
2018-05-12T19:06:08.322Z,24.44
2018-05-12T19:08:36.092Z,24.33
2018-05-12T19:11:03.666Z,24.24
2018-05-12T19:13:32.061Z,24.17
2018-05-12T19:15:59.864Z,24.09
2018-05-12T19:18:27.550Z,24.01
2018-05-12T19:20:55.327Z,23.94
2018-05-12T19:23:22.921Z,23.88
2018-05-12T19:25:50.642Z,23.80
2018-05-12T19:28:18.274Z,23.75
2018-05-12T19:30:46.029Z,23.73
2018-05-12T19:33:13.555Z,23.69
2018-05-12T19:35:41.094Z,23.69
2018-05-12T19:38:09.000Z,23.65
2018-05-12T19:40:36.708Z,23.60
2018-05-12T19:43:05.353Z,23.54
2018-05-12T19:45:34.537Z,23.49
2018-05-12T19:48:02.131Z,23.28
2018-05-12T19:50:29.701Z,23.37
2018-05-12T19:52:57.641Z,23.28
2018-05-12T19:55:25.156Z,23.21
2018-05-12T19:57:52.713Z,23.14
2018-05-12T20:00:20.652Z,23.12
2018-05-12T20:02:48.199Z,23.09
2018-05-12T20:05:15.989Z,23.11
2018-05-12T20:07:43.552Z,23.15
2018-05-12T20:10:11.184Z,23.21
2018-05-12T20:12:38.769Z,23.24
2018-05-12T20:15:06.726Z,23.26
2018-05-12T20:17:34.387Z,23.30
2018-05-12T20:20:02.040Z,23.34
2018-05-12T20:22:30.207Z,23.32
2018-05-12T20:24:57.760Z,23.27
2018-05-12T20:27:25.317Z,23.25
2018-05-12T20:29:53.009Z,23.16
2018-05-12T20:32:20.551Z,23.19
2018-05-12T20:34:48.174Z,23.18
2018-05-12T20:37:16.098Z,23.20
2018-05-12T20:39:43.602Z,23.21
2018-05-12T20:42:11.193Z,23.23
2018-05-12T20:44:38.884Z,23.15
2018-05-12T20:47:06.686Z,22.77
2018-05-12T20:49:34.323Z,22.63
2018-05-12T20:52:02.093Z,22.44
2018-05-12T20:54:29.613Z,22.46
2018-05-12T20:56:57.195Z,21.73
2018-05-12T20:59:25.007Z,21.73
2018-05-12T21:01:52.932Z,21.86
2018-05-12T21:04:20.507Z,22.25
2018-05-12T21:06:48.060Z,22.02
2018-05-12T21:09:17.364Z,21.82
2018-05-12T21:11:45.521Z,22.25
2018-05-12T21:14:13.411Z,22.07
2018-05-12T21:16:40.896Z,22.39
2018-05-12T21:19:08.677Z,22.24
2018-05-12T21:21:36.586Z,22.35
2018-05-12T21:24:04.451Z,22.23
2018-05-12T21:26:32.108Z,22.37
2018-05-12T21:29:00.687Z,22.23
2018-05-12T21:31:28.319Z,22.19
2018-05-12T21:33:55.860Z,21.88
2018-05-12T21:36:23.776Z,21.60
2018-05-12T21:38:51.361Z,21.51
2018-05-12T21:41:19.000Z,21.79
2018-05-12T21:43:47.258Z,21.64
2018-05-12T21:46:14.833Z,21.49
2018-05-12T21:48:42.417Z,21.14
2018-05-12T21:51:10.345Z,21.05
2018-05-12T21:53:37.920Z,20.95
2018-05-12T21:56:05.974Z,20.66
2018-05-12T21:58:33.859Z,20.39
2018-05-12T22:01:01.421Z,20.58
2018-05-12T22:03:29.692Z,20.63
2018-05-12T22:05:57.545Z,20.58
2018-05-12T22:08:25.060Z,20.34
2018-05-12T22:10:52.580Z,20.45
2018-05-12T22:13:21.361Z,20.58
2018-05-12T22:15:48.871Z,20.34
2018-05-12T22:18:17.679Z,20.53
2018-05-12T22:20:45.569Z,20.55
2018-05-12T22:23:13.152Z,20.54
2018-05-12T22:25:41.415Z,20.38
2018-05-12T22:28:08.984Z,20.29
2018-05-12T22:30:36.588Z,20.39
2018-05-12T22:33:04.090Z,20.43
2018-05-12T22:35:32.165Z,20.37
2018-05-12T22:37:59.710Z,20.36
2018-05-12T22:40:27.236Z,19.97
2018-05-12T22:42:54.808Z,19.91
2018-05-12T22:45:22.329Z,19.92
2018-05-12T22:47:49.854Z,20.05
2018-05-12T22:50:17.938Z,20.08
2018-05-12T22:52:45.460Z,20.12
2018-05-12T22:55:12.985Z,20.13
2018-05-12T22:57:40.688Z,20.00
2018-05-12T23:00:08.226Z,19.85
2018-05-12T23:02:35.753Z,19.90
2018-05-12T23:05:03.585Z,19.92
2018-05-12T23:07:31.101Z,19.93
2018-05-12T23:09:58.625Z,19.88
2018-05-12T23:12:26.200Z,19.87
2018-05-12T23:14:53.725Z,19.83
2018-05-12T23:17:21.246Z,19.83
2018-05-12T23:19:49.027Z,19.81
2018-05-12T23:22:16.557Z,19.74
2018-05-12T23:24:44.074Z,19.70
2018-05-12T23:27:12.550Z,19.68
2018-05-12T23:29:40.070Z,19.61
2018-05-12T23:32:07.590Z,19.56
2018-05-12T23:34:35.150Z,19.51
2018-05-12T23:37:02.674Z,19.46
2018-05-12T23:39:30.245Z,19.40
2018-05-12T23:41:57.814Z,19.36
2018-05-12T23:44:25.332Z,19.33
2018-05-12T23:46:52.849Z,19.27
2018-05-12T23:49:20.427Z,19.23
2018-05-12T23:51:47.948Z,19.19
2018-05-12T23:54:15.477Z,19.19
2018-05-12T23:56:43.246Z,19.16
2018-05-12T23:59:10.768Z,19.13
